Time;durP1;ratioP1;P1;durP2;ratioP2;P2;SDS_P1;SDS_P2;PMS_P1;PMS_P2;Temp;Humidity;BMP_temperature;BMP_pressure;BME280_temperature;BME280_humidity;BME280_pressure;Samples;Min_cycle;Max_cycle;Signal;HPM_P1;HPM_P2
2022/04/08 00:00:45;;;;;;;14.95;14.05;;;;;;;12.38;100.00;96565.91;2066336;28;20192;-72
2022/04/08 00:01:46;;;;;;;16.10;15.10;;;;;;;12.36;100.00;96562.06;2066773;28;20224;-73
2022/04/08 00:02:49;;;;;;;16.10;15.10;;;;;;;12.35;100.00;96563.22;2067038;28;20214;-72
2022/04/08 00:03:52;;;;;;;16.38;15.35;;;;;;;12.37;100.00;96559.03;2067045;28;20652;-73
2022/04/08 00:04:55;;;;;;;16.35;15.35;;;;;;;12.30;100.00;96542.91;2067160;28;20200;-72
2022/04/08 00:06:00;;;;;;;16.60;15.55;;;;;;;12.28;100.00;96553.22;2066550;28;20263;-72
2022/04/08 00:07:01;;;;;;;16.25;15.25;;;;;;;12.28;100.00;96547.09;2067008;28;20173;-72
2022/04/08 00:08:03;;;;;;;16.55;15.30;;;;;;;12.26;100.00;96554.72;2065968;28;20205;-72
2022/04/08 00:09:04;;;;;;;15.85;14.95;;;;;;;12.23;100.00;96558.88;2058383;28;20206;-73
2022/04/08 00:10:06;;;;;;;15.60;14.63;;;;;;;12.20;100.00;96556.97;2066517;28;20275;-72
2022/04/08 00:11:09;;;;;;;15.55;14.65;;;;;;;12.21;100.00;96557.72;2066250;28;20666;-72
2022/04/08 00:12:13;;;;;;;16.10;15.20;;;;;;;12.21;100.00;96550.47;2066456;28;20201;-73
2022/04/08 00:13:15;;;;;;;15.88;14.98;;;;;;;12.21;100.00;96558.50;2074135;28;20228;-72
2022/04/08 00:14:19;;;;;;;16.08;15.07;;;;;;;12.21;100.00;96566.50;2066974;28;20563;-72
2022/04/08 00:15:19;;;;;;;15.80;14.80;;;;;;;12.20;100.00;96559.63;2074351;28;20200;-72
2022/04/08 00:16:21;;;;;;;15.63;14.73;;;;;;;12.20;100.00;96567.66;2066267;28;20199;-73
2022/04/08 00:17:22;;;;;;;15.85;14.85;;;;;;;12.20;100.00;96580.25;2058413;28;20288;-72
2022/04/08 00:18:24;;;;;;;15.90;14.50;;;;;;;12.20;100.00;96580.25;2066358;28;20193;-73
2022/04/08 00:19:27;;;;;;;16.38;15.25;;;;;;;12.18;100.00;96583.28;2066923;28;20411;-72
2022/04/08 00:20:30;;;;;;;16.95;15.95;;;;;;;12.14;100.00;96561.09;2066934;28;20656;-73
2022/04/08 00:21:31;;;;;;;17.23;16.13;;;;;;;12.05;100.00;96563.28;2064869;28;20229;-72
2022/04/08 00:22:38;;;;;;;17.50;16.40;;;;;;;11.99;100.00;96559.41;2066037;28;20189;-73
2022/04/08 00:23:39;;;;;;;17.83;16.73;;;;;;;11.86;100.00;96564.25;2066216;28;20185;-72
2022/04/08 00:24:41;;;;;;;17.23;16.23;;;;;;;11.72;100.00;96559.47;2066319;28;20196;-72
2022/04/08 00:25:42;;;;;;;17.10;16.00;;;;;;;11.67;100.00;96565.16;2066716;28;20225;-73
2022/04/08 00:26:45;;;;;;;21.70;20.30;;;;;;;11.61;100.00;96567.34;2066204;28;20209;-73
2022/04/08 00:27:48;;;;;;;25.90;24.20;;;;;;;11.53;100.00;96572.97;2058415;28;20568;-72
2022/04/08 00:28:50;;;;;;;24.45;22.83;;;;;;;11.44;100.00;96567.91;2058664;28;20691;-72
2022/04/08 00:29:52;;;;;;;24.30;22.60;;;;;;;11.32;100.00;96584.16;2066275;28;20241;-72
2022/04/08 00:30:54;;;;;;;22.58;21.08;;;;;;;11.20;100.00;96574.44;2074272;28;20785;-72
2022/04/08 00:31:58;;;;;;;23.52;21.92;;;;;;;10.99;100.00;96571.50;2074525;28;20651;-73
2022/04/08 00:33:01;;;;;;;23.80;22.20;;;;;;;10.79;100.00;96575.41;2066732;28;20244;-73
2022/04/08 00:34:04;;;;;;;24.38;22.73;;;;;;;10.59;100.00;96567.44;2066914;28;20197;-72
2022/04/08 00:35:06;;;;;;;23.42;21.83;;;;;;;10.51;100.00;96579.13;2066186;28;20208;-72
2022/04/08 00:36:08;;;;;;;24.40;22.48;;;;;;;10.43;100.00;96575.59;2065737;28;20228;-72
2022/04/08 00:37:09;;;;;;;24.65;22.95;;;;;;;10.37;100.00;96582.34;2074159;28;20207;-72
2022/04/08 00:38:11;;;;;;;22.40;20.70;;;;;;;10.28;100.00;96594.34;2074334;28;20686;-72
2022/04/08 00:39:13;;;;;;;22.67;21.08;;;;;;;10.20;100.00;96602.19;2066780;28;20247;-72
2022/04/08 00:40:16;;;;;;;23.75;22.15;;;;;;;10.11;100.00;96585.66;2074254;28;20248;-73
2022/04/08 00:41:19;;;;;;;23.63;22.13;;;;;;;10.06;100.00;96593.16;2074294;28;20533;-73
2022/04/08 00:42:21;;;;;;;22.27;20.60;;;;;;;10.02;100.00;96598.44;2066102;28;20205;-73
2022/04/08 00:43:34;;;;;;;23.10;21.60;;;;;;;10.01;100.00;96612.09;2058064;28;20200;-73
2022/04/08 00:44:34;;;;;;;23.92;22.33;;;;;;;9.93;100.00;96611.19;2059636;28;20288;-73
2022/04/08 00:45:38;;;;;;;23.07;21.47;;;;;;;9.88;100.00;96627.44;2058091;28;20201;-73
2022/04/08 00:46:40;;;;;;;24.10;22.50;;;;;;;9.90;100.00;96627.84;2066161;28;20196;-73
2022/04/08 00:47:44;;;;;;;21.50;20.10;;;;;;;9.95;100.00;96651.56;2065772;28;20228;-73
2022/04/08 00:48:48;;;;;;;22.50;20.90;;;;;;;9.93;100.00;96661.03;2058252;28;20205;-72
2022/04/08 00:49:49;;;;;;;23.10;21.50;;;;;;;9.87;100.00;96666.63;2066143;28;20196;-73
2022/04/08 00:50:50;;;;;;;23.97;21.90;;;;;;;9.83;100.00;96659.69;2066078;28;20667;-73
2022/04/08 00:51:51;;;;;;;24.40;22.45;;;;;;;9.71;100.00;96636.63;2065548;28;20627;-73
2022/04/08 00:52:53;;;;;;;24.53;22.73;;;;;;;9.60;100.00;96646.28;2074382;28;20299;-73
2022/04/08 00:53:54;;;;;;;24.77;23.02;;;;;;;9.56;100.00;96640.91;2066739;28;20573;-73
2022/04/08 00:54:57;;;;;;;25.70;23.90;;;;;;;9.50;100.00;96647.59;2065341;28;20205;-73
2022/04/08 00:55:58;;;;;;;27.20;25.20;;;;;;;9.42;100.00;96653.88;2066220;28;20200;-73
2022/04/08 00:57:00;;;;;;;27.33;25.13;;;;;;;9.41;100.00;96655.00;2066695;28;20604;-73
2022/04/08 00:58:02;;;;;;;28.10;26.20;;;;;;;9.36;100.00;96641.97;2066583;28;20200;-73
2022/04/08 00:59:03;;;;;;;29.20;27.02;;;;;;;9.31;100.00;96647.56;2066752;28;20189;-73
2022/04/08 01:00:08;;;;;;;27.92;26.02;;;;;;;9.22;100.00;96649.63;2066591;28;20197;-72
2022/04/08 01:01:17;;;;;;;27.00;25.10;;;;;;;9.19;100.00;96640.44;2066680;28;20678;-73
2022/04/08 01:02:20;;;;;;;25.30;23.27;;;;;;;9.13;100.00;96667.69;2066797;28;20178;-73
2022/04/08 01:03:22;;;;;;;25.05;23.17;;;;;;;9.16;100.00;96669.63;2073937;28;20223;-73
2022/04/08 01:04:23;;;;;;;25.55;23.65;;;;;;;9.11;100.00;96678.63;2065995;28;20204;-73
2022/04/08 01:05:25;;;;;;;25.00;22.85;;;;;;;9.09;100.00;96664.16;2066181;28;20271;-73
2022/04/08 01:06:26;;;;;;;24.83;22.83;;;;;;;9.04;100.00;96663.31;2066376;28;20213;-73
2022/04/08 01:07:29;;;;;;;25.35;23.45;;;;;;;8.98;100.00;96669.22;2065871;28;20577;-73
2022/04/08 01:08:35;;;;;;;24.95;23.15;;;;;;;9.00;100.00;96683.72;2066031;28;20193;-72
2022/04/08 01:09:38;;;;;;;25.48;23.48;;;;;;;8.95;100.00;96688.53;2066690;28;20177;-73
2022/04/08 01:10:39;;;;;;;25.73;23.80;;;;;;;8.92;100.00;96691.84;2073868;28;20196;-73
2022/04/08 01:11:42;;;;;;;25.27;23.48;;;;;;;8.88;100.00;96691.78;2074409;28;20255;-72
2022/04/08 01:12:42;;;;;;;25.40;23.50;;;;;;;8.89;100.00;96697.88;2066476;28;20204;-73
2022/04/08 01:13:44;;;;;;;24.07;22.30;;;;;;;8.88;100.00;96699.75;2065863;28;20205;-73
2022/04/08 01:14:47;;;;;;;24.05;22.25;;;;;;;8.83;100.00;96705.31;2066123;28;20708;-73
2022/04/08 01:15:49;;;;;;;22.55;21.05;;;;;;;8.79;100.00;96699.16;2066507;28;20193;-73
2022/04/08 01:16:52;;;;;;;23.75;22.05;;;;;;;8.74;100.00;96691.41;2065926;28;20295;-73
2022/04/08 01:17:54;;;;;;;23.70;21.75;;;;;;;8.70;100.00;96706.53;2057849;28;20695;-73
2022/04/08 01:18:54;;;;;;;23.45;21.85;;;;;;;8.64;100.00;96707.88;2057838;28;20228;-73
2022/04/08 01:19:56;;;;;;;23.83;22.13;;;;;;;8.65;100.00;96717.38;2057916;28;20257;-73
2022/04/08 01:20:58;;;;;;;25.60;23.40;;;;;;;8.61;100.00;96722.63;2057326;28;20202;-72
2022/04/08 01:22:00;;;;;;;23.67;21.88;;;;;;;8.61;100.00;96730.59;2065905;28;20303;-72
2022/04/08 01:23:06;;;;;;;22.95;21.20;;;;;;;8.62;100.00;96732.13;2066655;28;20195;-73
2022/04/08 01:24:11;;;;;;;23.27;21.55;;;;;;;8.62;100.00;96744.66;2066448;28;20223;-73
2022/04/08 01:25:14;;;;;;;23.85;22.15;;;;;;;8.63;100.00;96754.19;2065434;28;20715;-73
2022/04/08 01:26:15;;;;;;;24.92;22.92;;;;;;;8.62;100.00;96753.41;2065749;28;20240;-73
2022/04/08 01:27:19;;;;;;;24.98;23.17;;;;;;;8.60;100.00;96755.63;2066462;28;20200;-73
2022/04/08 01:28:21;;;;;;;26.30;24.30;;;;;;;8.59;100.00;96759.38;2065755;28;20224;-73
2022/04/08 01:29:21;;;;;;;25.95;23.80;;;;;;;8.54;100.00;96756.22;2065846;28;20633;-73
2022/04/08 01:30:25;;;;;;;26.25;24.15;;;;;;;8.49;100.00;96755.31;2066504;28;20185;-73
2022/04/08 01:31:29;;;;;;;25.70;23.70;;;;;;;8.52;100.00;96753.13;2065325;28;20212;-73
2022/04/08 01:32:30;;;;;;;25.33;23.33;;;;;;;8.50;100.00;96751.56;2065923;28;20711;-73
2022/04/08 01:33:32;;;;;;;25.07;23.07;;;;;;;8.53;100.00;96754.66;2066372;28;20217;-73
2022/04/08 01:34:32;;;;;;;26.27;24.38;;;;;;;8.49;100.00;96759.88;2065438;28;20804;-73
2022/04/08 01:35:35;;;;;;;25.30;23.27;;;;;;;8.45;100.00;96749.16;2065660;28;20190;-72
2022/04/08 01:36:37;;;;;;;25.80;23.80;;;;;;;8.42;100.00;96747.16;2065358;28;20224;-73
2022/04/08 01:37:40;;;;;;;24.02;22.23;;;;;;;8.39;100.00;96742.53;2066710;28;20189;-73
2022/04/08 01:38:44;;;;;;;24.05;22.35;;;;;;;8.40;100.00;96744.06;2066379;28;20196;-74
2022/04/08 01:39:45;;;;;;;24.10;22.40;;;;;;;8.35;100.00;96741.66;2066488;28;20192;-73
2022/04/08 01:40:48;;;;;;;24.05;22.10;;;;;;;8.37;100.00;96751.94;2073750;28;20197;-72
2022/04/08 01:41:50;;;;;;;23.80;22.10;;;;;;;8.35;100.00;96752.28;2065637;28;20200;-73
2022/04/08 01:42:54;;;;;;;23.27;21.60;;;;;;;8.32;100.00;96754.81;2057751;28;20584;-72
2022/04/08 01:43:55;;;;;;;25.00;22.95;;;;;;;8.31;100.00;96758.56;2058187;28;20558;-73
2022/04/08 01:44:57;;;;;;;25.30;23.50;;;;;;;8.30;100.00;96760.47;2065751;28;20197;-73
2022/04/08 01:45:58;;;;;;;24.15;22.50;;;;;;;8.29;100.00;96756.25;2065686;28;20238;-72
2022/04/08 01:47:00;;;;;;;25.07;23.43;;;;;;;8.30;100.00;96768.44;2065704;28;20185;-73
2022/04/08 01:48:03;;;;;;;25.60;23.77;;;;;;;8.32;100.00;96760.13;2073984;28;20208;-72
2022/04/08 01:49:05;;;;;;;25.13;23.33;;;;;;;8.30;100.00;96757.81;2065633;28;20192;-68
2022/04/08 01:50:07;;;;;;;25.02;23.20;;;;;;;8.28;100.00;96764.56;2065855;28;20204;-69
2022/04/08 01:51:10;;;;;;;24.95;23.25;;;;;;;8.26;100.00;96772.88;2064941;28;20189;-70
2022/04/08 01:52:11;;;;;;;24.58;22.33;;;;;;;8.27;100.00;96777.09;2065877;28;20201;-68
2022/04/08 01:53:15;;;;;;;23.60;21.90;;;;;;;8.27;100.00;96785.06;2066127;28;20212;-68
2022/04/08 01:54:16;;;;;;;23.35;21.73;;;;;;;8.29;100.00;96787.38;2065481;28;20616;-68
2022/04/08 01:55:18;;;;;;;23.53;21.93;;;;;;;8.29;100.00;96788.13;2065746;28;20650;-69
2022/04/08 01:56:26;;;;;;;23.85;22.25;;;;;;;8.30;100.00;96795.00;2073686;28;20192;-69
2022/04/08 01:57:29;;;;;;;23.67;21.90;;;;;;;8.32;100.00;96782.16;2073224;28;20264;-69
2022/04/08 01:58:32;;;;;;;24.85;23.15;;;;;;;8.32;100.00;96803.41;2066217;28;20216;-69
2022/04/08 01:59:34;;;;;;;24.92;23.02;;;;;;;8.32;100.00;96787.47;2066379;28;20193;-68
2022/04/08 02:00:35;;;;;;;24.73;23.03;;;;;;;8.35;100.00;96786.84;2073618;28;20283;-68
2022/04/08 02:01:36;;;;;;;25.25;23.55;;;;;;;8.34;100.00;96781.81;2073678;28;20188;-68
2022/04/08 02:02:39;;;;;;;24.77;22.93;;;;;;;8.32;100.00;96784.03;2066089;28;20243;-69
2022/04/08 02:03:40;;;;;;;23.55;21.95;;;;;;;8.29;100.00;96771.44;2066168;28;20193;-69
2022/04/08 02:04:43;;;;;;;25.17;23.17;;;;;;;8.23;100.00;96784.16;2066087;28;20221;-68
2022/04/08 02:05:45;;;;;;;24.10;22.48;;;;;;;8.22;100.00;96785.28;2065406;28;20252;-69
2022/04/08 02:06:46;;;;;;;23.10;21.40;;;;;;;8.21;100.00;96781.84;2065233;28;20271;-69
2022/04/08 02:07:47;;;;;;;24.02;22.33;;;;;;;8.17;100.00;96780.22;2073472;28;20259;-68
2022/04/08 02:08:50;;;;;;;24.40;22.80;;;;;;;8.17;100.00;96773.03;2073686;28;20196;-68
2022/04/08 02:09:55;;;;;;;22.98;21.30;;;;;;;8.16;100.00;96760.06;2066067;28;20204;-69
2022/04/08 02:10:57;;;;;;;25.85;24.13;;;;;;;8.11;100.00;96766.38;2066258;28;20200;-69
2022/04/08 02:12:00;;;;;;;25.50;23.80;;;;;;;8.07;100.00;96759.41;2073525;28;20200;-69
2022/04/08 02:13:05;;;;;;;24.10;22.50;;;;;;;8.03;100.00;96763.84;2065290;28;20185;-69
2022/04/08 02:14:06;;;;;;;25.40;23.60;;;;;;;8.03;100.00;96769.16;2065653;28;20189;-69
2022/04/08 02:15:09;;;;;;;25.17;23.48;;;;;;;8.05;100.00;96764.28;2066279;28;20192;-69
2022/04/08 02:16:10;;;;;;;25.23;23.35;;;;;;;8.05;100.00;96767.72;2065216;28;20287;-69
2022/04/08 02:17:12;;;;;;;23.40;21.80;;;;;;;8.07;100.00;96764.72;2057324;28;20213;-69
2022/04/08 02:18:15;;;;;;;22.95;21.35;;;;;;;8.04;100.00;96760.09;2065442;28;20189;-69
2022/04/08 02:19:16;;;;;;;22.58;20.98;;;;;;;8.06;100.00;96769.25;2066065;28;20189;-69
2022/04/08 02:20:18;;;;;;;20.70;19.40;;;;;;;8.04;100.00;96754.78;2066041;28;20201;-68
2022/04/08 02:21:19;;;;;;;20.52;19.05;;;;;;;7.99;100.00;96749.69;2064850;28;20456;-69
2022/04/08 02:22:21;;;;;;;20.60;19.00;;;;;;;8.01;100.00;96761.53;2065460;28;20197;-68
2022/04/08 02:23:22;;;;;;;20.80;19.30;;;;;;;8.00;100.00;96764.53;2073515;28;20651;-69
2022/04/08 02:24:24;;;;;;;19.53;18.13;;;;;;;7.97;100.00;96759.88;2065281;28;20263;-69
2022/04/08 02:25:25;;;;;;;20.25;18.63;;;;;;;7.97;100.00;96770.50;2065127;28;20243;-68
2022/04/08 02:26:28;;;;;;;20.60;19.08;;;;;;;7.97;100.00;96773.16;2065305;28;20192;-69
2022/04/08 02:27:32;;;;;;;20.20;18.83;;;;;;;8.02;100.00;96775.59;2065367;28;20231;-69
2022/04/08 02:28:34;;;;;;;20.40;18.77;;;;;;;8.04;100.00;96787.41;2065295;28;20200;-69
2022/04/08 02:29:34;;;;;;;20.55;18.92;;;;;;;8.03;100.00;96782.44;2057430;28;20301;-69
2022/04/08 02:30:36;;;;;;;19.87;18.57;;;;;;;7.99;100.00;96778.91;2065411;28;20216;-68
2022/04/08 02:31:39;;;;;;;19.40;18.10;;;;;;;8.00;100.00;96783.91;2065275;28;20204;-68
2022/04/08 02:32:42;;;;;;;19.80;18.40;;;;;;;7.98;100.00;96782.66;2057452;28;20199;-69
2022/04/08 02:33:47;;;;;;;19.75;18.40;;;;;;;7.98;100.00;96786.09;2065289;28;20208;-69
2022/04/08 02:34:50;;;;;;;21.23;19.60;;;;;;;7.97;100.00;96791.75;2065971;28;20224;-69
2022/04/08 02:35:51;;;;;;;20.88;19.33;;;;;;;8.00;100.00;96799.06;2065892;28;20248;-69
2022/04/08 02:36:53;;;;;;;21.42;19.75;;;;;;;7.99;100.00;96794.81;2072989;28;20231;-69
2022/04/08 02:37:56;;;;;;;20.77;19.27;;;;;;;7.94;100.00;96801.94;2065204;28;20200;-69
2022/04/08 02:38:59;;;;;;;21.48;19.67;;;;;;;7.97;100.00;96805.03;2065343;28;20276;-68
2022/04/08 02:40:00;;;;;;;21.75;20.05;;;;;;;7.94;100.00;96795.84;2073324;28;20220;-69
2022/04/08 02:41:03;;;;;;;20.98;19.50;;;;;;;7.89;100.00;96791.53;2064382;28;20193;-68
2022/04/08 02:42:05;;;;;;;21.83;20.10;;;;;;;7.87;100.00;96788.44;2057362;28;20205;-69
2022/04/08 02:43:08;;;;;;;21.55;20.13;;;;;;;7.86;100.00;96784.25;2065597;28;20539;-69
2022/04/08 02:44:09;;;;;;;21.00;19.50;;;;;;;7.89;100.00;96786.22;2065886;28;20185;-68
2022/04/08 02:45:13;;;;;;;20.83;19.33;;;;;;;7.89;100.00;96783.56;2065832;28;20200;-69
2022/04/08 02:46:14;;;;;;;20.42;18.83;;;;;;;7.91;100.00;96793.88;2064966;28;20676;-69
2022/04/08 02:47:16;;;;;;;19.27;17.98;;;;;;;7.89;100.00;96782.78;2065421;28;20706;-69
2022/04/08 02:48:18;;;;;;;20.08;18.77;;;;;;;7.91;100.00;96788.56;2064369;28;20333;-69
2022/04/08 02:49:20;;;;;;;19.95;18.52;;;;;;;7.87;100.00;96790.31;2065274;28;20291;-69
2022/04/08 02:50:21;;;;;;;20.08;18.48;;;;;;;7.88;100.00;96795.28;2065843;28;20676;-68
2022/04/08 02:51:24;;;;;;;19.30;18.10;;;;;;;7.89;100.00;96793.41;2065398;28;20220;-69
2022/04/08 02:52:26;;;;;;;18.55;17.35;;;;;;;7.93;100.00;96784.44;2065834;28;20196;-68
2022/04/08 02:53:28;;;;;;;18.45;17.15;;;;;;;8.00;100.00;96791.09;2065710;28;20189;-69
2022/04/08 02:54:29;;;;;;;17.50;16.20;;;;;;;7.98;100.00;96787.97;2064451;28;20201;-69
2022/04/08 02:55:31;;;;;;;17.30;16.10;;;;;;;8.01;100.00;96801.38;2065174;28;20280;-69
2022/04/08 02:56:32;;;;;;;17.10;15.93;;;;;;;7.99;100.00;96789.53;2065967;28;20193;-69
2022/04/08 02:57:44;;;;;;;17.20;16.00;;;;;;;8.00;100.00;96791.88;2065957;28;20227;-69
2022/04/08 02:58:48;;;;;;;17.58;16.00;;;;;;;8.02;100.00;96794.19;2073283;28;20184;-69
2022/04/08 02:59:52;;;;;;;16.65;15.40;;;;;;;8.06;100.00;96801.13;2065076;28;20251;-69
2022/04/08 03:00:59;;;;;;;17.00;15.90;;;;;;;8.09;100.00;96799.72;2065218;28;20551;-68
2022/04/08 03:02:01;;;;;;;16.92;15.32;;;;;;;8.10;100.00;96807.34;2065987;28;20177;-69
2022/04/08 03:03:03;;;;;;;16.80;15.43;;;;;;;8.17;100.00;96817.41;2065064;28;20225;-69
2022/04/08 03:04:06;;;;;;;17.25;15.70;;;;;;;8.10;100.00;96804.69;2065136;28;20432;-69
2022/04/08 03:05:08;;;;;;;17.25;16.00;;;;;;;8.15;100.00;96838.19;2065774;28;20189;-69
2022/04/08 03:06:12;;;;;;;17.13;15.82;;;;;;;8.18;100.00;96818.94;2072672;28;20212;-68
2022/04/08 03:07:13;;;;;;;16.15;14.95;;;;;;;8.20;100.00;96827.34;2065122;28;20208;-69
2022/04/08 03:08:15;;;;;;;16.38;15.20;;;;;;;8.18;100.00;96822.38;2057264;28;20231;-69
2022/04/08 03:09:16;;;;;;;16.60;15.05;;;;;;;8.22;100.00;96831.22;2065257;28;20201;-68
2022/04/08 03:10:18;;;;;;;16.33;15.10;;;;;;;8.25;100.00;96834.28;2065759;28;20643;-69
2022/04/08 03:11:18;;;;;;;16.40;15.15;;;;;;;8.33;100.00;96839.47;2072762;28;20451;-68
2022/04/08 03:12:22;;;;;;;16.83;15.20;;;;;;;8.30;100.00;96832.19;2065020;28;20197;-69
2022/04/08 03:13:24;;;;;;;16.40;15.30;;;;;;;8.32;100.00;96840.59;2065080;28;20197;-69
2022/04/08 03:14:27;;;;;;;16.20;15.18;;;;;;;8.24;100.00;96828.22;2065653;28;20185;-69
2022/04/08 03:15:27;;;;;;;16.05;15.05;;;;;;;8.24;100.00;96836.19;2065692;28;20250;-69
2022/04/08 03:16:29;;;;;;;16.17;14.90;;;;;;;8.20;100.00;96837.97;2073109;28;20254;-68
2022/04/08 03:17:30;;;;;;;16.02;14.93;;;;;;;8.20;100.00;96851.25;2073120;28;20223;-69
2022/04/08 03:18:32;;;;;;;16.27;15.07;;;;;;;8.25;100.00;96856.31;2065771;28;20185;-69
2022/04/08 03:19:33;;;;;;;16.13;14.85;;;;;;;8.23;100.00;96851.34;2073078;28;20204;-69
2022/04/08 03:20:36;;;;;;;16.67;15.27;;;;;;;8.20;100.00;96851.25;2073250;28;20196;-69
2022/04/08 03:21:37;;;;;;;16.10;14.90;;;;;;;8.24;100.00;96857.44;2065243;28;20575;-68
2022/04/08 03:22:39;;;;;;;15.20;14.10;;;;;;;8.22;100.00;96852.44;2065701;28;20276;-69
2022/04/08 03:23:41;;;;;;;15.30;14.23;;;;;;;8.18;100.00;96850.81;2065701;28;20197;-68
2022/04/08 03:24:43;;;;;;;15.70;14.60;;;;;;;8.16;100.00;96853.00;2065664;28;20201;-68
2022/04/08 03:25:44;;;;;;;15.73;14.52;;;;;;;8.15;100.00;96851.47;2065524;28;20225;-67
2022/04/08 03:26:48;;;;;;;17.57;15.93;;;;;;;8.16;100.00;96858.31;2065902;28;20192;-68
2022/04/08 03:27:49;;;;;;;15.40;14.50;;;;;;;8.20;100.00;96857.34;2065645;28;20280;-68
2022/04/08 03:28:51;;;;;;;15.57;14.57;;;;;;;8.16;100.00;96858.31;2065048;28;20247;-68
2022/04/08 03:29:57;;;;;;;16.10;15.00;;;;;;;8.16;100.00;96866.28;2065039;28;20270;-67
2022/04/08 03:30:59;;;;;;;15.65;14.65;;;;;;;8.17;100.00;96865.97;2065000;28;20228;-68
2022/04/08 03:32:00;;;;;;;16.58;14.90;;;;;;;8.14;100.00;96866.63;2065165;28;20193;-70
2022/04/08 03:33:01;;;;;;;16.50;15.30;;;;;;;8.14;100.00;96869.28;2064957;28;20193;-68
2022/04/08 03:34:03;;;;;;;16.45;15.23;;;;;;;8.06;100.00;96864.09;2065213;28;20753;-68
2022/04/08 03:35:07;;;;;;;16.33;14.80;;;;;;;8.13;100.00;96890.88;2065586;28;20272;-68
2022/04/08 03:36:09;;;;;;;16.33;15.13;;;;;;;8.09;100.00;96892.66;2065071;28;20232;-68
2022/04/08 03:37:16;;;;;;;16.02;14.70;;;;;;;8.10;100.00;96897.63;2065688;28;20702;-68
2022/04/08 03:38:18;;;;;;;16.10;14.82;;;;;;;8.10;100.00;96894.97;2065661;28;20640;-68
2022/04/08 03:39:20;;;;;;;16.80;15.60;;;;;;;8.07;100.00;96886.88;2065679;28;20308;-68
2022/04/08 03:40:21;;;;;;;16.90;15.70;;;;;;;8.04;100.00;96895.53;2065704;28;20189;-68
2022/04/08 03:41:25;;;;;;;16.63;15.35;;;;;;;7.98;100.00;96889.66;2065618;28;20193;-68
2022/04/08 03:42:26;;;;;;;16.73;15.43;;;;;;;8.01;100.00;96893.53;2065896;28;20200;-68
2022/04/08 03:43:30;;;;;;;16.48;15.30;;;;;;;8.03;100.00;96900.06;2065025;28;20209;-68
2022/04/08 03:44:37;;;;;;;16.20;15.00;;;;;;;7.97;100.00;96895.28;2065665;28;20208;-68
2022/04/08 03:45:40;;;;;;;16.42;15.18;;;;;;;7.94;100.00;96913.44;2064499;28;20204;-68
2022/04/08 03:46:41;;;;;;;16.00;14.82;;;;;;;7.96;100.00;96912.34;2056988;28;20197;-68
2022/04/08 03:47:43;;;;;;;15.80;14.60;;;;;;;7.97;100.00;96916.53;2065029;28;20185;-68
2022/04/08 03:48:45;;;;;;;16.20;15.00;;;;;;;8.01;100.00;96918.22;2065571;28;20194;-68
2022/04/08 03:49:48;;;;;;;16.50;15.40;;;;;;;8.02;100.00;96926.94;2065555;28;20650;-68
2022/04/08 03:50:49;;;;;;;16.42;15.07;;;;;;;8.00;100.00;96918.56;2064902;28;20213;-68
2022/04/08 03:51:50;;;;;;;16.00;14.88;;;;;;;8.06;100.00;96933.13;2064458;28;20221;-68
2022/04/08 03:52:52;;;;;;;16.40;15.00;;;;;;;8.08;100.00;96928.25;2065796;28;20651;-69
2022/04/08 03:53:54;;;;;;;16.30;15.20;;;;;;;8.08;100.00;96936.22;2072907;28;20307;-68
2022/04/08 03:54:58;;;;;;;16.42;15.13;;;;;;;8.10;100.00;96926.06;2072976;28;20184;-68
2022/04/08 03:56:01;;;;;;;16.20;14.90;;;;;;;8.11;100.00;96954.19;2064894;28;20671;-68
2022/04/08 03:57:05;;;;;;;16.25;14.82;;;;;;;8.07;100.00;96940.00;2064998;28;20229;-68
2022/04/08 03:58:09;;;;;;;16.63;15.30;;;;;;;8.07;100.00;96961.25;2065244;28;20209;-68
2022/04/08 03:59:10;;;;;;;15.85;14.85;;;;;;;8.07;100.00;96946.06;2058498;28;20206;-67
2022/04/08 04:00:12;;;;;;;16.03;14.80;;;;;;;8.07;100.00;96947.97;2066460;28;20185;-69
2022/04/08 04:01:14;;;;;;;15.50;14.50;;;;;;;8.07;100.00;96951.38;2067012;28;20250;-68
2022/04/08 04:02:17;;;;;;;15.65;14.40;;;;;;;8.02;100.00;96948.19;2066291;28;20248;-67
2022/04/08 04:03:20;;;;;;;16.08;14.80;;;;;;;8.00;100.00;96964.47;2058488;28;20205;-68
2022/04/08 04:04:23;;;;;;;16.38;15.00;;;;;;;8.07;100.00;96969.22;2057794;28;20248;-68
2022/04/08 04:05:25;;;;;;;16.77;15.30;;;;;;;8.06;100.00;96957.81;2066379;28;20189;-68
2022/04/08 04:06:28;;;;;;;16.88;15.48;;;;;;;8.02;100.00;96964.13;2065815;28;20228;-68
2022/04/08 04:07:29;;;;;;;16.60;15.30;;;;;;;8.00;99.52;96961.03;2066545;28;20204;-67
2022/04/08 04:08:30;;;;;;;16.30;15.20;;;;;;;7.99;100.00;96972.72;2066928;28;20231;-68
2022/04/08 04:09:32;;;;;;;15.90;14.77;;;;;;;7.96;99.96;96976.84;2066874;28;20440;-68
2022/04/08 04:10:35;;;;;;;16.65;15.63;;;;;;;7.98;98.45;96979.94;2067127;28;20640;-67
2022/04/08 04:11:38;;;;;;;16.75;15.43;;;;;;;7.98;98.77;96976.50;2066973;28;20197;-68
2022/04/08 04:12:42;;;;;;;16.67;15.40;;;;;;;8.04;95.46;96999.09;2065373;28;20213;-69
2022/04/08 04:13:43;;;;;;;16.42;15.25;;;;;;;8.09;94.93;96997.00;2066518;28;20201;-69
2022/04/08 04:14:45;;;;;;;15.90;14.90;;;;;;;8.06;96.87;96991.56;2066839;28;20220;-69
2022/04/08 04:15:46;;;;;;;17.05;15.38;;;;;;;8.04;94.80;97002.50;2066248;28;20197;-69
2022/04/08 04:16:50;;;;;;;17.42;15.70;;;;;;;8.08;95.73;97005.28;2066516;28;20663;-69
2022/04/08 04:17:52;;;;;;;16.20;14.95;;;;;;;7.99;97.00;96991.31;2066889;28;20228;-69
2022/04/08 04:18:53;;;;;;;15.98;14.90;;;;;;;7.92;97.89;96995.31;2074253;28;20196;-69
2022/04/08 04:19:55;;;;;;;16.52;15.20;;;;;;;7.86;98.55;96999.28;2074425;28;20195;-69
2022/04/08 04:20:56;;;;;;;17.10;15.70;;;;;;;7.87;97.11;96998.16;2066460;28;20710;-69
2022/04/08 04:21:57;;;;;;;16.30;15.20;;;;;;;7.87;97.10;97000.81;2066882;28;20616;-69
2022/04/08 04:22:59;;;;;;;16.23;15.00;;;;;;;7.88;96.12;97010.34;2067027;28;20197;-69
2022/04/08 04:24:00;;;;;;;17.05;15.52;;;;;;;7.90;94.46;97005.47;2066998;28;20644;-69
2022/04/08 04:25:02;;;;;;;16.33;15.02;;;;;;;7.91;95.67;97020.31;2066767;28;20185;-69
2022/04/08 04:26:06;;;;;;;15.95;14.80;;;;;;;7.93;93.97;97020.75;2065952;28;20245;-69
2022/04/08 04:27:08;;;;;;;16.10;15.00;;;;;;;7.93;95.54;97002.16;2066263;28;20201;-69
2022/04/08 04:28:08;;;;;;;16.45;15.25;;;;;;;7.92;91.46;97029.84;2066082;28;20209;-68
2022/04/08 04:29:11;;;;;;;16.47;15.30;;;;;;;7.90;92.60;97016.09;2066385;28;20193;-69
2022/04/08 04:30:12;;;;;;;16.50;15.23;;;;;;;7.85;93.71;97011.00;2066067;28;20569;-70
2022/04/08 04:31:15;;;;;;;16.45;15.23;;;;;;;7.91;90.90;97036.25;2066169;28;20606;-69
2022/04/08 04:32:19;;;;;;;16.48;15.23;;;;;;;7.89;91.39;97013.75;2066966;28;20204;-69
2022/04/08 04:33:19;;;;;;;16.48;15.20;;;;;;;7.90;89.56;97028.59;2074120;28;20196;-68
2022/04/08 04:34:21;;;;;;;17.43;16.03;;;;;;;7.92;89.11;97031.72;2065995;28;20213;-69
2022/04/08 04:35:22;;;;;;;16.83;15.60;;;;;;;7.94;86.49;97040.91;2066250;28;20197;-69
2022/04/08 04:36:24;;;;;;;17.55;16.35;;;;;;;7.98;86.63;97037.56;2065553;28;20611;-69
2022/04/08 04:37:26;;;;;;;17.50;16.30;;;;;;;7.97;86.11;97036.03;2066332;28;20197;-69
2022/04/08 04:38:28;;;;;;;17.73;16.27;;;;;;;8.00;85.90;97046.00;2066821;28;20245;-70
2022/04/08 04:39:29;;;;;;;17.75;16.40;;;;;;;8.03;86.09;97045.34;2066672;28;20192;-69
2022/04/08 04:40:33;;;;;;;17.50;16.20;;;;;;;7.96;85.86;97053.06;2066700;28;20267;-70
2022/04/08 04:41:33;;;;;;;18.33;16.80;;;;;;;7.92;85.13;97059.03;2066828;28;20615;-69
2022/04/08 04:42:35;;;;;;;18.10;16.60;;;;;;;7.93;85.31;97047.31;2065979;28;20224;-68
2022/04/08 04:43:37;;;;;;;17.98;16.35;;;;;;;7.94;85.47;97051.50;2066142;28;20686;-69
2022/04/08 04:44:40;;;;;;;15.88;14.88;;;;;;;7.95;84.91;97057.59;2073645;28;20200;-69
2022/04/08 04:45:41;;;;;;;16.25;15.00;;;;;;;7.95;83.23;97060.25;2074320;28;20562;-69
2022/04/08 04:46:43;;;;;;;17.37;15.60;;;;;;;7.95;83.81;97054.94;2074079;28;20287;-69